Latest Weather Observations for Batchelor

IDD60801

Issued at 8:41 am CST Wednesday 19 June 2019 (issued every 10 minutes, with the page automatically refreshed every 10 minutes)

About weather observations | Map of weather stations | Latest weather observations for NT | Other Formats
Station Details ID: 014272 Name: BATCHELOR AIRPORT Lat: -13.05 Lon: 131.03 Height: 104.0 m
Data from the previous 72 hours. | See also: Recent months at Batchelor
Date/Time
CST
Temp
°C
App
Temp
°C
Dew
Point
°C
Rel
Hum
%
Delta-T
°C
Wind Press
QNH
hPa
Press
MSL
hPa
Rain since
9am
mm
Dir  Spd
km/h
Gust
km/h
Spd
kts
Gust
kts
19/08:30am 21.2 17.9 4.3 33 8.2 SE 11 17 6 9 1017.2 1016.7 0.0
19/08:00am 20.2 17.3 4.7 36 7.6 SE 9 11 5 6 1017.0 1016.5 0.0
19/07:30am 18.8 15.9 4.9 40 6.7 SE 9 11 5 6 1016.8 1016.3 0.0
19/07:00am 17.6 14.7 4.9 43 6.1 SE 9 13 5 7 1016.4 1015.9 0.0
19/06:30am 18.0 15.1 4.9 42 6.3 SE 9 13 5 7 1016.0 1015.5 0.0
19/06:00am 17.3 15.0 5.6 46 5.7 SE 7 11 4 6 1015.6 1015.1 0.0
19/05:30am 16.9 14.5 5.2 46 5.6 SE 7 9 4 5 1015.5 1015.0 0.0
19/05:00am 19.3 16.0 4.6 38 7.1 SE 11 13 6 7 1015.4 1014.9 0.0
19/04:30am 20.1 16.4 4.2 35 7.7 SE 13 17 7 9 1015.3 1014.8 0.0
19/04:00am 20.8 17.2 4.8 35 7.9 SE 13 20 7 11 1015.3 1014.8 0.0
19/03:30am 20.8 17.2 4.8 35 7.8 SE 13 17 7 9 1015.2 1014.7 0.0
19/03:00am 20.4 17.2 5.2 37 7.5 SE 11 15 6 8 1015.1 1014.6 0.0
19/02:30am 20.8 17.7 5.6 37 7.6 SE 11 15 6 8 1015.0 1014.5 0.0
19/02:00am 19.6 17.1 6.7 43 6.5 SE 9 13 5 7 1015.2 1014.7 0.0
19/01:30am 19.7 17.6 6.8 43 6.5 SE 7 11 4 6 1015.1 1014.6 0.0
19/01:00am 19.9 18.0 7.6 45 6.3 SE 7 11 4 6 1015.1 1014.6 0.0
19/12:30am 19.3 17.6 8.3 49 5.7 SE 7 9 4 5 1015.0 1014.5 0.0
19/12:00am 19.6 17.9 8.3 48 5.9 SE 7 9 4 5 1014.9 1014.4 0.0
 
Date/Time
CST
Temp
°C
App
Temp
°C
Dew
Point
°C
Rel
Hum
%
Delta-T
°C
Wind Press
QNH
hPa
Press
MSL
hPa
Rain since
9am
mm
Dir  Spd
km/h
Gust
km/h
Spd
kts
Gust
kts
18/11:30pm 20.3 18.7 8.6 47 6.2 SE 7 9 4 5 1014.9 1014.4 0.0
18/11:00pm 20.7 18.9 9.6 49 6.0 SE 9 9 5 5 1015.0 1014.5 0.0
18/10:30pm 18.9 18.1 9.7 55 4.9 SE 4 6 2 3 1015.1 1014.6 0.0
18/10:00pm 20.5 19.3 9.4 49 5.9 SE 6 6 3 3 1015.0 1014.5 0.0
18/09:30pm 20.1 19.0 9.9 52 5.5 SE 6 7 3 4 1014.8 1014.3 0.0
18/09:00pm 20.7 19.6 9.9 50 5.8 SE 6 6 3 3 1014.6 1014.1 0.0
18/08:30pm 22.5 21.2 9.3 43 7.1 SSE 6 7 3 4 1014.3 1013.8 0.0
18/08:00pm 22.7 21.6 9.8 44 7.0 SSE 6 6 3 3 1014.0 1013.5 0.0
18/07:30pm 22.1 20.7 8.9 43 7.1 SSE 6 7 3 4 1013.7 1013.2 0.0
18/07:00pm 25.5 23.7 8.1 33 9.3 SE 7 9 4 5 1013.3 1012.8 0.0
18/06:30pm 27.2 24.9 7.6 29 10.5 SE 9 13 5 7 1012.9 1012.4 0.0
18/06:00pm 29.3 25.9 7.8 26 11.7 SE 15 20 8 11 1012.4 1011.9 0.0
18/05:30pm 30.4 26.8 8.2 25 12.3 SE 17 26 9 14 1012.2 1011.7 0.0
18/05:00pm 30.9 26.8 8.0 24 12.6 SE 19 28 10 15 1011.9 1011.4 0.0
18/04:30pm 31.4 27.3 7.8 23 13.0 SE 19 28 10 15 1011.8 1011.3 0.0
18/04:00pm 31.5 26.3 7.2 22 13.3 SE 24 33 13 18 1011.9 1011.4 0.0
18/03:30pm 31.7 26.9 7.4 22 13.3 SE 22 33 12 18 1012.0 1011.5 0.0
18/03:00pm 31.4 27.3 7.8 23 13.0 SE 19 30 10 16 1012.3 1011.8 0.0
18/02:30pm 31.6 27.5 8.0 23 13.1 SE 19 30 10 16 1012.9 1012.4 0.0
18/02:00pm 31.6 26.3 8.6 24 12.9 SE 26 39 14 21 1013.3 1012.8 0.0
18/01:30pm 31.9 28.0 9.4 25 12.8 ESE 20 30 11 16 1013.7 1013.2 0.0
18/01:00pm 30.5 26.1 8.8 26 12.1 ESE 22 39 12 21 1014.4 1013.9 0.0
18/12:30pm 30.4 27.2 9.8 28 11.7 ESE 17 26 9 14 1014.8 1014.3 0.0
18/12:00pm 29.8 27.1 11.8 33 10.5 E 17 24 9 13 1015.4 1014.9 0.0
18/11:30am 28.2 24.4 11.3 35 9.7 SE 22 32 12 17 1015.9 1015.4 0.0
18/11:00am 28.0 25.1 12.4 38 9.1 ESE 19 30 10 16 1016.2 1015.7 0.0
18/10:30am 27.0 24.8 13.4 43 8.0 ESE 17 24 9 13 1016.4 1015.9 0.0
18/10:00am 26.5 24.7 13.3 44 7.8 SE 15 28 8 15 1016.7 1016.2 0.0
18/09:30am 25.8 23.9 13.0 45 7.5 SE 15 20 8 11 1016.8 1016.3 0.0
18/09:00am 24.9 23.6 13.8 50 6.5 SE 13 17 7 9 1016.7 1016.2 0.0
18/08:30am 22.7 23.3 16.7 69 3.7 SE 9 13 5 7 1016.6 1016.1 0.0
18/08:00am 20.1 22.7 19.3 95 0.5 SSE 4 6 2 3 1016.3 1015.8 0.0
18/07:30am 17.1 19.2 16.3 95 0.5 CALM 0 2 0 1 1016.0 1015.5 0.0
18/07:00am 16.6 18.5 15.8 95 0.5 CALM 0 2 0 1 1015.7 1015.2 0.0
18/06:30am 16.7 17.9 15.9 95 0.5 WNW 4 4 2 2 1015.5 1015.0 0.0
18/06:00am 16.5 17.9 15.5 94 0.6 WNW 2 6 1 3 1015.3 1014.8 0.0
18/05:30am 17.4 19.6 16.6 95 0.5 CALM 0 0 0 0 1015.3 1014.8 0.0
18/05:00am 17.3 19.4 16.2 93 0.7 CALM 0 0 0 0 1015.2 1014.7 0.0
18/04:30am 17.6 19.5 16.6 94 0.6 WNW 2 2 1 1 1015.1 1014.6 0.0
18/04:00am 17.6 19.8 16.5 93 0.7 CALM 0 0 0 0 1015.2 1014.7 0.0
18/03:30am 17.8 20.0 16.5 92 0.8 CALM 0 0 0 0 1015.3 1014.8 0.0
18/03:00am 18.3 20.6 16.8 91 0.9 CALM 0 0 0 0 1015.4 1014.9 0.0
18/02:30am 18.4 20.8 16.9 91 0.9 CALM 0 0 0 0 1015.5 1015.0 0.0
18/02:00am 18.7 21.2 17.2 91 0.9 CALM 0 0 0 0 1015.6 1015.1 0.0
18/01:30am 18.8 20.4 16.9 89 1.2 WNW 4 4 2 2 1015.6 1015.1 0.0
18/01:00am 19.0 21.3 16.8 87 1.3 CALM 0 0 0 0 1015.6 1015.1 0.0
18/12:30am 19.7 22.1 17.1 85 1.6 CALM 0 0 0 0 1015.6 1015.1 0.0
18/12:00am 19.3 21.6 16.7 85 1.6 CALM 0 0 0 0 1015.7 1015.2 0.0
 
Date/Time
CST
Temp
°C
App
Temp
°C
Dew
Point
°C
Rel
Hum
%
Delta-T
°C
Wind Press
QNH
hPa
Press
MSL
hPa
Rain since
9am
mm
Dir  Spd
km/h
Gust
km/h
Spd
kts
Gust
kts
17/11:30pm 20.2 22.6 17.0 82 2.0 CALM 0 4 0 2 1015.8 1015.3 0.0
17/11:00pm 20.7 23.1 16.9 79 2.3 CALM 0 0 0 0 1015.8 1015.3 0.0
17/10:30pm 21.4 22.8 16.4 73 3.0 WNW 4 6 2 3 1015.8 1015.3 0.0
17/10:00pm 22.5 23.7 15.8 66 4.0 WNW 4 6 2 3 1015.7 1015.2 0.0
17/09:30pm 22.4 22.6 12.9 55 5.5 SE 4 6 2 3 1015.3 1014.8 0.0
17/09:00pm 21.6 22.3 13.5 60 4.7 ESE 2 6 1 3 1014.9 1014.4 0.0
17/08:30pm 22.3 23.3 13.1 56 5.3 CALM 0 0 0 0 1014.6 1014.1 0.0
17/08:00pm 22.8 23.7 13.0 54 5.7 CALM 0 0 0 0 1014.2 1013.7 0.0
17/07:30pm 23.8 24.5 12.1 48 6.7 CALM 0 0 0 0 1013.6 1013.1 0.0
17/07:00pm 25.4 25.9 11.6 42 7.9 CALM 0 4 0 2 1013.1 1012.6 0.0
17/06:30pm 27.2 26.0 10.4 35 9.5 ESE 7 9 4 5 1012.6 1012.2 0.0
17/06:00pm 30.3 28.3 10.3 29 11.4 ESE 11 17 6 9 1012.3 1011.8 0.0
17/05:30pm 31.4 28.5 9.6 26 12.4 SE 15 22 8 12 1011.9 1011.4 0.0
17/05:00pm 31.9 29.5 10.0 26 12.5 SE 13 22 7 12 1011.6 1011.1 0.0
17/04:30pm 32.1 29.2 9.6 25 12.8 ESE 15 20 8 11 1011.4 1010.9 0.0
17/04:00pm 32.4 29.0 10.4 26 12.7 ESE 19 28 10 15 1011.3 1010.8 0.0
17/03:30pm 32.8 29.3 10.8 26 12.8 E 20 28 11 15 1011.5 1011.0 0.0
17/03:00pm 32.5 28.9 10.5 26 12.7 ESE 20 33 11 18 1011.7 1011.2 0.0
17/02:30pm 32.5 28.9 10.5 26 12.7 ESE 20 30 11 16 1012.1 1011.6 0.0
17/02:00pm 32.4 28.9 11.0 27 12.5 ESE 20 32 11 17 1012.6 1012.2 0.0
17/01:30pm 31.6 27.9 11.4 29 11.8 SE 22 33 12 18 1013.2 1012.7 0.0
17/01:00pm 31.6 27.5 11.4 29 11.8 ESE 24 33 13 18 1014.0 1013.5 0.0
17/12:30pm 31.8 28.4 12.6 31 11.4 ESE 22 32 12 17 1014.7 1014.2 0.0
17/12:00pm 30.3 26.8 12.2 33 10.6 ESE 22 39 12 21 1015.2 1014.7 0.0
17/11:30am 29.6 25.9 13.8 38 9.5 ESE 26 35 14 19 1015.8 1015.3 0.0
17/11:00am 28.6 26.4 14.8 43 8.4 ESE 20 32 11 17 1016.3 1015.8 0.0
17/10:30am 28.1 27.0 15.4 46 7.8 ESE 15 22 8 12 1016.5 1016.0 0.0
17/10:00am 26.7 27.4 18.0 59 5.5 SE 11 15 6 8 1016.8 1016.3 0.0
17/09:30am 25.8 27.5 19.4 67 4.1 SE 9 15 5 8 1016.7 1016.2 0.0
17/09:00am 23.9 27.3 21.6 87 1.5 SSE 6 9 3 5 1016.6 1016.1 0.0
17/08:30am 22.0 25.3 21.5 97 0.3 S 6 7 3 4 1016.2 1015.7 0.0
17/08:00am 20.6 24.0 20.1 97 0.3 WNW 2 4 1 2 1015.7 1015.2 0.0
17/07:30am 20.1 23.6 19.6 97 0.3 CALM 0 2 0 1 1015.4 1014.9 0.0
17/07:00am 20.1 23.2 19.6 97 0.3 WNW 2 2 1 1 1015.3 1014.8 0.0
17/06:30am 20.6 23.6 20.1 97 0.3 WNW 4 6 2 3 1015.1 1014.6 0.0
17/06:00am 18.5 20.9 17.9 96 0.4 WNW 2 4 1 2 1014.9 1014.4 0.0
17/05:30am 18.5 21.2 17.7 95 0.5 CALM 0 0 0 0 1014.9 1014.4 0.0
17/05:00am 18.9 21.7 17.9 94 0.6 CALM 0 0 0 0 1014.8 1014.3 0.0
17/04:30am 18.3 20.7 17.1 93 0.7 CALM 0 0 0 0 1014.7 1014.2 0.0
17/04:00am 18.9 21.7 17.9 94 0.6 CALM 0 0 0 0 1014.6 1014.1 0.0
17/03:30am 19.1 21.9 17.9 93 0.7 CALM 0 0 0 0 1014.5 1014.0 0.0
17/03:00am 19.1 21.8 17.8 92 0.8 CALM 0 0 0 0 1014.6 1014.1 0.0
17/02:30am 19.2 22.0 18.0 93 0.7 CALM 0 0 0 0 1014.7 1014.2 0.0
17/02:00am 19.5 22.4 18.3 93 0.7 CALM 0 0 0 0 1014.8 1014.3 0.0
17/01:30am 19.7 22.7 18.5 93 0.7 CALM 0 0 0 0 1014.9 1014.4 0.0
17/01:00am 19.7 22.5 18.0 90 1.1 CALM 0 0 0 0 1014.9 1014.4 0.0
17/12:30am 20.4 23.6 18.9 91 0.9 CALM 0 0 0 0 1015.0 1014.5 0.0
17/12:00am 20.7 23.5 18.8 89 1.2 WNW 2 4 1 2 1015.1 1014.6 0.0
 
Date/Time
CST
Temp
°C
App
Temp
°C
Dew
Point
°C
Rel
Hum
%
Delta-T
°C
Wind Press
QNH
hPa
Press
MSL
hPa
Rain since
9am
mm
Dir  Spd
km/h
Gust
km/h
Spd
kts
Gust
kts
16/11:30pm 21.6 25.2 19.7 89 1.2 CALM 0 0 0 0 1015.0 1014.5 0.0
16/11:00pm 22.4 25.9 20.3 88 1.4 WNW 2 4 1 2 1015.1 1014.6 0.0
16/10:30pm 22.6 25.2 20.1 86 1.6 WNW 6 9 3 5 1015.1 1014.6 0.0
16/10:00pm 22.7 25.4 20.2 86 1.6 NW 6 9 3 5 1014.9 1014.4 0.0
16/09:30pm 22.8 25.0 19.6 82 2.1 NW 7 9 4 5 1014.6 1014.1 0.0
16/09:00pm 23.6 25.9 19.5 78 2.6 WNW 6 9 3 5 1014.2 1013.7 0.0
16/08:30pm 24.3 26.7 19.6 75 3.0 W 6 7 3 4 1013.7 1013.2 0.0
16/08:00pm 24.1 25.3 17.4 66 4.2 W 7 13 4 7 1013.2 1012.7 0.0
16/07:30pm 24.3 25.8 14.7 55 5.7 CALM 0 0 0 0 1012.6 1012.2 0.0
16/07:00pm 25.8 27.2 14.3 49 6.9 CALM 0 0 0 0 1012.2 1011.7 0.0
16/06:30pm 28.2 29.2 13.3 40 8.9 CALM 0 2 0 1 1011.8 1011.3 0.0
16/06:00pm 30.7 30.0 12.1 32 11.0 SE 7 13 4 7 1011.5 1011.0 0.0
16/05:30pm 32.0 30.4 11.7 28 12.0 SE 11 19 6 10 1011.4 1010.9 0.0
16/05:00pm 32.4 31.3 12.1 29 12.0 SSE 9 19 5 10 1011.1 1010.6 0.0
16/04:30pm 32.4 30.7 12.6 30 11.8 SE 13 24 7 13 1011.1 1010.6 0.0
16/04:00pm 32.6 30.8 13.3 31 11.7 SE 15 24 8 13 1011.2 1010.7 0.0
16/03:30pm 32.2 29.7 13.4 32 11.4 ESE 19 28 10 15 1011.4 1010.9 0.0
16/03:00pm 32.9 31.3 14.0 32 11.6 E 15 26 8 14 1011.7 1011.2 0.0
16/02:30pm 31.9 30.0 14.1 34 10.9 SE 17 26 9 14 1012.2 1011.7 0.0
16/02:00pm 31.5 30.1 14.6 36 10.4 ESE 15 26 8 14 1012.4 1011.9 0.0
16/01:30pm 32.2 30.9 15.7 37 10.3 ESE 17 26 9 14 1013.0 1012.5 0.0
16/01:00pm 31.3 30.9 16.1 40 9.5 ESE 13 26 7 14 1013.7 1013.2 0.0
16/12:30pm 31.1 31.6 17.4 44 8.7 ENE 11 19 6 10 1014.2 1013.7 0.0
16/12:00pm 29.5 30.6 18.0 50 7.4 E 9 17 5 9 1014.8 1014.3 0.0
16/11:30am 28.8 29.5 18.0 52 6.9 E 11 20 6 11 1015.3 1014.8 0.0
16/11:00am 27.9 29.3 18.6 57 6.0 ENE 9 17 5 9 1015.7 1015.2 0.0
16/10:30am 27.7 29.0 19.2 60 5.5 E 11 15 6 8 1015.9 1015.4 0.0
16/10:00am 26.5 28.5 19.1 64 4.8 ENE 7 13 4 7 1016.1 1015.6 0.0
16/09:30am 26.0 28.3 19.4 67 4.3 N 6 9 3 5 1016.2 1015.7 0.0
16/09:00am 24.8 29.1 21.1 80 2.4 CALM 0 0 0 0 1016.0 1015.5 0.0

Other formats

Comma delimited format used in spreadsheet applications
http://www.bom.gov.au/fwo/IDD60801/IDD60801.94125.axf

JavaScript Object Notation format (JSON) in row-major order
http://www.bom.gov.au/fwo/IDD60801/IDD60801.94125.json

Data quality

Most of these data are generated automatically and are frequently updated. Quality checks on data are not normally performed. It is possible for incorrect values to appear. Refer to information at About Latest Weather Observations and please check the disclaimer before using these data.